Shemah Yisrael!
Hear, O Israel: the LORD our God, the LORD is one.
You shall love the LORD your God with all your heart and with all your soul and with all your might.
(Deuteronomy 6:4-5)
Houston / Ellington, TX, United States (KEFD) 29-36N 095-10W
Nov 13, 2018 - 05:50 PM EST / 2018.11.13 2250 UTC
Wind: from the NNW (330 degrees) at 14 MPH (12 KT):0
Visibility: 8 mile(s):0
Sky conditions: overcast
Temperature: 39 F (4 C)
Dew Point: 28 F (-2 C)
Relative Humidity: 64%
Pressure (altimeter): 30.44 in. Hg (1030 hPa)
ob: KEFD 132250Z 33012KT 8SM OVC030 04/M02 A3044
cycle: 23
w e b m a s t e r   a t   s h e m a h   d o t   n e t